createdAt,value
2023-03-26T00:03:12.027Z,1.9
2023-03-26T00:08:57.877Z,2
2023-03-26T00:14:42.453Z,1.7
2023-03-26T00:20:27.163Z,2
2023-03-26T00:26:12.138Z,2
2023-03-26T00:31:57.645Z,2
2023-03-26T00:37:42.215Z,1.7
2023-03-26T00:43:26.889Z,1.8
2023-03-26T00:49:11.330Z,2.2
2023-03-26T00:54:57.377Z,1.7
2023-03-26T01:00:48.031Z,1.9
2023-03-26T01:06:33.707Z,2
2023-03-26T01:12:23.501Z,1.9
2023-03-26T01:18:08.310Z,2
2023-03-26T01:23:58.716Z,1.7
2023-03-26T01:29:46.575Z,2.2
2023-03-26T01:35:36.710Z,1.8
2023-03-26T01:41:23.812Z,1.7
2023-03-26T01:47:13.059Z,1.9
2023-03-26T01:52:57.795Z,1.9
2023-03-26T01:58:47.413Z,1.6
2023-03-26T02:04:34.571Z,2.1
2023-03-26T02:10:21.851Z,1.6
2023-03-26T02:16:08.247Z,1.9
2023-03-26T02:21:53.030Z,1.8
2023-03-26T02:27:37.706Z,2
2023-03-26T02:33:22.141Z,1.9
2023-03-26T02:39:07.159Z,1.6
2023-03-26T02:44:51.755Z,1.6
2023-03-26T02:50:36.310Z,2
2023-03-26T02:56:20.991Z,1.6
2023-03-26T03:02:05.873Z,1.7
2023-03-26T03:07:50.398Z,2.1
2023-03-26T03:13:34.883Z,1.6
2023-03-26T03:19:19.407Z,1.8
2023-03-26T03:25:05.473Z,2.3
2023-03-26T03:30:51.319Z,2.7
2023-03-26T03:36:35.959Z,2.3
2023-03-26T03:42:20.594Z,2.4
2023-03-26T03:48:07.147Z,2.3
2023-03-26T03:53:52.318Z,2.1
2023-03-26T03:59:36.806Z,2
2023-03-26T04:05:21.460Z,2.3
2023-03-26T04:11:06.183Z,1.9
2023-03-26T04:16:50.729Z,1.9
2023-03-26T04:22:35.398Z,2.2
2023-03-26T04:28:25.088Z,2.3
2023-03-26T04:34:11.224Z,1.8
2023-03-26T04:39:55.974Z,1.8
2023-03-26T04:45:40.623Z,2
2023-03-26T04:51:27.167Z,1.9
2023-03-26T04:57:15.960Z,1.8
2023-03-26T05:03:00.735Z,1.8
2023-03-26T05:08:45.486Z,1.7
2023-03-26T05:14:30.047Z,1.6
2023-03-26T05:20:18.400Z,1.7
2023-03-26T05:26:03.666Z,1.5
2023-03-26T05:31:49.208Z,1.4
2023-03-26T05:37:35.339Z,1.3
2023-03-26T05:43:19.990Z,1.4
2023-03-26T05:49:06.096Z,1.4
2023-03-26T05:54:50.567Z,1.4
2023-03-26T06:00:35.296Z,1.3
2023-03-26T06:06:24.681Z,1.3
2023-03-26T06:12:10.240Z,1.2
2023-03-26T06:17:54.874Z,1.4
2023-03-26T06:23:39.652Z,1.2
2023-03-26T06:29:24.305Z,1.1
2023-03-26T06:35:09.292Z,1
2023-03-26T06:40:54.778Z,1
2023-03-26T06:46:39.991Z,0.9
2023-03-26T06:52:24.583Z,1
2023-03-26T06:58:09.240Z,1.3
2023-03-26T07:03:53.817Z,0.9
2023-03-26T07:09:43.344Z,1.1
2023-03-26T07:15:29.740Z,1
2023-03-26T07:21:15.314Z,1
2023-03-26T07:27:04.583Z,1
2023-03-26T07:32:55.293Z,0.8
2023-03-26T07:38:47.764Z,0.7
2023-03-26T07:44:39.226Z,0.8
2023-03-26T07:50:25.063Z,0.7
2023-03-26T07:56:15.764Z,0.8
2023-03-26T08:02:11.544Z,1.3
2023-03-26T08:08:02.912Z,0.8
2023-03-26T08:13:54.097Z,0.7
2023-03-26T08:19:50.334Z,0.7
2023-03-26T08:25:39.705Z,0.7
2023-03-26T08:31:31.589Z,1.4
2023-03-26T08:37:16.463Z,0.8
2023-03-26T08:43:12.292Z,0.8
2023-03-26T08:49:15.511Z,0.6
2023-03-26T08:55:08.316Z,0.8
2023-03-26T09:01:03.242Z,0.8
2023-03-26T09:07:02.251Z,0.8
2023-03-26T09:12:56.061Z,0.7
2023-03-26T09:18:57.679Z,0.7
2023-03-26T09:25:00.639Z,0.6
2023-03-26T09:30:54.652Z,0.7
2023-03-26T09:36:50.886Z,0.7
2023-03-26T09:42:39.762Z,0.7
2023-03-26T09:48:47.789Z,0.8
2023-03-26T09:54:45.703Z,0.6
2023-03-26T10:00:36.910Z,0.7
2023-03-26T10:06:29.602Z,0.8
2023-03-26T10:12:21.089Z,0.7
2023-03-26T10:18:26.943Z,0.8
2023-03-26T10:24:21.044Z,0.8
2023-03-26T10:30:14.270Z,0.6
2023-03-26T10:36:04.966Z,0.7
2023-03-26T10:41:53.715Z,0.6
2023-03-26T10:47:52.228Z,0.5
2023-03-26T10:53:39.574Z,0.5
2023-03-26T10:59:24.268Z,0.5
2023-03-26T11:05:20.094Z,0.3
2023-03-26T11:11:07.268Z,0.4
2023-03-26T11:16:59.836Z,0.4
2023-03-26T11:22:49.025Z,0.4
2023-03-26T11:29:03.164Z,0.5
2023-03-26T11:34:52.881Z,0.6
2023-03-26T11:40:39.526Z,0.7
2023-03-26T11:46:25.927Z,0.5
2023-03-26T11:52:12.157Z,0.5
2023-03-26T11:58:00.465Z,0.5
2023-03-26T12:03:45.762Z,0.5
2023-03-26T12:09:30.250Z,0.6
2023-03-26T12:15:19.186Z,0.6
2023-03-26T12:21:11.812Z,0.6
2023-03-26T12:26:58.730Z,0.5
2023-03-26T12:32:53.875Z,0.6
2023-03-26T12:38:38.552Z,0.7
2023-03-26T12:44:52.145Z,0.8
2023-03-26T12:50:38.065Z,1
2023-03-26T12:56:29.126Z,0.8
2023-03-26T13:02:24.874Z,1.1
2023-03-26T13:08:17.134Z,1
2023-03-26T13:14:08.044Z,0.9
2023-03-26T13:19:54.450Z,0.8
2023-03-26T13:25:45.199Z,0.7
2023-03-26T13:31:35.512Z,0.7
2023-03-26T13:37:24.889Z,0.7
2023-03-26T13:43:23.688Z,0.7
2023-03-26T13:49:12.764Z,0.6
2023-03-26T13:55:02.847Z,0.5
2023-03-26T14:00:53.275Z,0.5
2023-03-26T14:06:42.709Z,0.6
2023-03-26T14:12:38.734Z,0.7
2023-03-26T14:18:33.333Z,0.6
2023-03-26T14:24:30.022Z,0.6
2023-03-26T14:30:28.418Z,0.6
2023-03-26T14:36:17.966Z,0.7
2023-03-26T14:42:04.653Z,0.5
2023-03-26T14:47:53.147Z,0.7
2023-03-26T14:53:40.278Z,0.7
2023-03-26T14:59:44.886Z,0.5
2023-03-26T15:05:50.082Z,0.8
2023-03-26T15:11:41.369Z,0.8
2023-03-26T15:17:43.219Z,0.8
2023-03-26T15:23:47.812Z,0.7
2023-03-26T15:29:44.370Z,0.7
2023-03-26T15:35:40.784Z,0.8
2023-03-26T15:41:30.653Z,0.7
2023-03-26T15:47:28.489Z,0.6
2023-03-26T15:53:19.850Z,0.8
2023-03-26T15:59:09.283Z,0.8
2023-03-26T16:04:55.799Z,0.8
2023-03-26T16:10:44.070Z,0.8
2023-03-26T16:16:39.448Z,1
2023-03-26T16:22:44.607Z,1.1
2023-03-26T16:28:36.340Z,1
2023-03-26T16:34:29.133Z,1.2
2023-03-26T16:40:24.885Z,1.2
2023-03-26T16:46:13.359Z,1.4
2023-03-26T16:52:02.996Z,1.6
2023-03-26T16:57:52.431Z,1.7
2023-03-26T17:03:43.737Z,1.8
2023-03-26T17:09:35.640Z,2
2023-03-26T17:15:26.895Z,2.2
2023-03-26T17:21:16.192Z,2.1
2023-03-26T17:27:03.874Z,2.1
2023-03-26T17:32:59.676Z,3.3
2023-03-26T17:39:01.596Z,3.4
2023-03-26T17:44:48.235Z,3.7
2023-03-26T17:50:35.500Z,3.6
2023-03-26T17:56:23.581Z,3.7
2023-03-26T18:02:14.771Z,4
2023-03-26T18:08:20.010Z,5.1
2023-03-26T18:14:22.537Z,5.5
2023-03-26T18:20:09.302Z,5.5
2023-03-26T18:25:58.175Z,5.7
2023-03-26T18:31:43.507Z,5.7
2023-03-26T18:37:29.384Z,5.1
2023-03-26T18:43:34.634Z,4.6
2023-03-26T18:49:24.991Z,4.4
2023-03-26T18:55:13.318Z,3.9
2023-03-26T19:00:59.249Z,4.2
2023-03-26T19:06:44.964Z,4.1
2023-03-26T19:12:30.373Z,3.6
2023-03-26T19:18:18.570Z,3.5
2023-03-26T19:24:03.967Z,3.2
2023-03-26T19:29:49.606Z,3.3
2023-03-26T19:35:38.692Z,2.6
2023-03-26T19:41:26.103Z,2.6
2023-03-26T19:47:18.329Z,2.7
2023-03-26T19:53:18.993Z,2.7
2023-03-26T19:59:03.724Z,2.5
2023-03-26T20:04:48.171Z,2.2
2023-03-26T20:10:32.778Z,2.4
2023-03-26T20:16:20.865Z,2.1
2023-03-26T20:22:06.269Z,2.2
2023-03-26T20:27:51.933Z,2.2
2023-03-26T20:33:36.779Z,2
2023-03-26T20:39:21.599Z,1.9
2023-03-26T20:45:13.454Z,1.9
2023-03-26T20:50:58.090Z,1.9
2023-03-26T20:56:42.618Z,1.8
2023-03-26T21:02:27.611Z,2
2023-03-26T21:08:15.945Z,1.7
2023-03-26T21:14:03.496Z,1.9
2023-03-26T21:19:48.934Z,1.9
2023-03-26T21:25:37.818Z,1.6
2023-03-26T21:31:23.514Z,1.7
2023-03-26T21:37:08.416Z,1.5
2023-03-26T21:42:54.455Z,1.4
2023-03-26T21:48:39.410Z,1.7
2023-03-26T21:54:29.804Z,1.4
2023-03-26T22:00:17.389Z,1.4
2023-03-26T22:06:05.575Z,1.4
2023-03-26T22:11:51.288Z,1.4
2023-03-26T22:17:35.986Z,1.4
2023-03-26T22:23:21.076Z,1.4
2023-03-26T22:29:06.009Z,1.4
2023-03-26T22:34:50.548Z,1.1
2023-03-26T22:40:35.173Z,1.9
2023-03-26T22:46:19.928Z,1.6
2023-03-26T22:52:04.678Z,1.5
2023-03-26T22:57:49.172Z,1.3
2023-03-26T23:03:37.734Z,1.3
2023-03-26T23:09:22.421Z,1.3
2023-03-26T23:15:08.112Z,1.1
2023-03-26T23:20:57.490Z,1.3
2023-03-26T23:26:51.767Z,1.5
2023-03-26T23:32:36.364Z,1.2
2023-03-26T23:38:20.859Z,1.1
2023-03-26T23:44:05.703Z,1.3
2023-03-26T23:49:50.213Z,1.4
2023-03-26T23:55:35.319Z,1
